Time;durP1;ratioP1;P1;durP2;ratioP2;P2;SDS_P1;SDS_P2;PMS_P1;PMS_P2;Temp;Humidity;BMP_temperature;BMP_pressure;BME280_temperature;BME280_humidity;BME280_pressure;Samples;Min_cycle;Max_cycle;Signal;HPM_P1;HPM_P2
2022/07/09 00:00:48;;;;;;;6.73;5.57;;;13.30;99.90;;;;;;5069440;28;20804;-67
2022/07/09 00:03:15;;;;;;;9.77;6.10;;;13.30;99.90;;;;;;5069456;28;20471;-66
2022/07/09 00:05:42;;;;;;;10.00;6.23;;;13.30;99.90;;;;;;5069633;28;20439;-66
2022/07/09 00:08:09;;;;;;;6.83;5.77;;;13.30;99.90;;;;;;5060545;28;20451;-68
2022/07/09 00:10:36;;;;;;;7.30;6.00;;;13.20;99.90;;;;;;5064357;28;20526;-67
2022/07/09 00:13:02;;;;;;;6.90;5.60;;;13.10;99.90;;;;;;5065458;28;20463;-66
2022/07/09 00:15:31;;;;;;;9.77;6.40;;;13.10;99.90;;;;;;5066297;28;20775;-67
2022/07/09 00:17:57;;;;;;;7.70;5.50;;;13.00;99.90;;;;;;5065885;28;20558;-64
2022/07/09 00:20:24;;;;;;;7.57;6.13;;;12.90;99.90;;;;;;5065467;28;20439;-69
2022/07/09 00:22:51;;;;;;;6.60;5.90;;;12.90;99.90;;;;;;5066509;28;20455;-67
2022/07/09 00:25:18;;;;;;;8.97;5.80;;;12.90;99.90;;;;;;5066642;28;20936;-67
2022/07/09 00:27:45;;;;;;;7.47;5.50;;;12.90;99.90;;;;;;5066694;28;20439;-67
2022/07/09 00:30:12;;;;;;;7.30;5.43;;;13.00;99.90;;;;;;5066294;28;20424;-69
2022/07/09 00:32:40;;;;;;;8.47;6.07;;;13.00;99.90;;;;;;5065985;28;20479;-68
2022/07/09 00:35:08;;;;;;;9.10;6.00;;;13.00;99.90;;;;;;5066913;28;20445;-67
2022/07/09 00:37:34;;;;;;;7.50;5.93;;;13.10;99.90;;;;;;5066501;28;20463;-66
2022/07/09 00:40:01;;;;;;;6.70;5.53;;;13.10;99.90;;;;;;5065578;28;20447;-66
2022/07/09 00:42:28;;;;;;;12.20;6.27;;;13.00;99.90;;;;;;5065822;28;20473;-68
2022/07/09 00:44:55;;;;;;;8.60;6.40;;;12.90;99.90;;;;;;5066044;28;20442;-69
2022/07/09 00:47:22;;;;;;;10.73;6.97;;;12.90;99.90;;;;;;5069556;28;20451;-66
2022/07/09 00:49:50;;;;;;;9.07;6.17;;;12.90;99.90;;;;;;5069110;28;20446;-66
2022/07/09 00:52:18;;;;;;;12.47;6.93;;;12.90;99.90;;;;;;5069771;28;20573;-67
2022/07/09 00:54:45;;;;;;;8.47;6.33;;;12.90;99.90;;;;;;5069871;28;20481;-69
2022/07/09 00:57:13;;;;;;;8.20;5.90;;;12.90;99.90;;;;;;5068531;28;20525;-67
2022/07/09 00:59:40;;;;;;;9.40;6.80;;;12.90;99.90;;;;;;5065639;28;20439;-67
2022/07/09 01:02:08;;;;;;;9.30;6.47;;;12.80;99.90;;;;;;5069579;28;20443;-67
2022/07/09 01:04:36;;;;;;;8.73;6.30;;;12.70;99.90;;;;;;5069542;28;20474;-69
2022/07/09 01:07:05;;;;;;;6.90;6.20;;;12.60;99.90;;;;;;5069743;28;20515;-68
2022/07/09 01:09:32;;;;;;;9.77;6.10;;;12.60;99.90;;;;;;5069434;28;20944;-68
2022/07/09 01:11:59;;;;;;;10.10;6.30;;;12.60;99.90;;;;;;5071410;28;20979;-67
2022/07/09 01:14:26;;;;;;;7.97;6.53;;;12.60;99.90;;;;;;5062364;28;20486;-67
2022/07/09 01:16:58;;;;;;;6.10;5.40;;;12.50;99.90;;;;;;5065776;28;20439;-70
2022/07/09 01:19:25;;;;;;;7.67;6.83;;;12.50;99.90;;;;;;5066782;28;20447;-67
2022/07/09 01:21:53;;;;;;;7.60;6.50;;;12.40;99.90;;;;;;5067452;28;20447;-69
2022/07/09 01:24:21;;;;;;;8.47;5.67;;;12.30;99.90;;;;;;5070803;28;20466;-67
2022/07/09 01:26:48;;;;;;;10.03;6.40;;;12.40;99.90;;;;;;5070713;28;20929;-69
2022/07/09 01:29:15;;;;;;;9.20;6.10;;;12.40;99.90;;;;;;5070367;28;20446;-65
2022/07/09 01:31:42;;;;;;;8.73;6.83;;;12.30;99.90;;;;;;5070773;28;20481;-69
2022/07/09 01:34:09;;;;;;;7.73;5.80;;;12.30;99.90;;;;;;5069865;28;20473;-68
2022/07/09 01:36:35;;;;;;;8.40;6.20;;;12.30;99.90;;;;;;5070741;28;20526;-67
2022/07/09 01:39:04;;;;;;;7.87;6.30;;;12.30;99.90;;;;;;5070474;28;20445;-69
2022/07/09 01:41:32;;;;;;;6.93;6.10;;;12.40;99.90;;;;;;5070801;28;20474;-67
2022/07/09 01:43:58;;;;;;;8.23;6.90;;;12.30;99.90;;;;;;5067141;28;20455;-71
2022/07/09 01:46:25;;;;;;;6.70;6.10;;;12.30;99.90;;;;;;5071207;28;20514;-66
2022/07/09 01:48:52;;;;;;;6.80;6.00;;;12.40;99.90;;;;;;5071069;28;20475;-67
2022/07/09 01:51:19;;;;;;;8.83;6.20;;;12.40;99.90;;;;;;5070565;28;20928;-67
2022/07/09 01:53:46;;;;;;;8.57;6.83;;;12.30;99.90;;;;;;5070372;28;20949;-66
2022/07/09 01:56:14;;;;;;;7.80;6.10;;;12.20;99.90;;;;;;5061981;28;20458;-69
2022/07/09 01:58:41;;;;;;;9.93;7.13;;;12.20;99.90;;;;;;5070590;28;20450;-67
2022/07/09 02:01:11;;;;;;;7.90;6.43;;;12.20;99.90;;;;;;5069236;28;20936;-66
2022/07/09 02:03:38;;;;;;;10.00;6.30;;;12.30;99.90;;;;;;5070052;28;20485;-68
2022/07/09 02:06:06;;;;;;;7.77;6.40;;;12.30;99.90;;;;;;5069504;28;20455;-67
2022/07/09 02:08:32;;;;;;;9.97;6.40;;;12.30;99.90;;;;;;5070012;28;20447;-66
2022/07/09 02:10:59;;;;;;;8.70;6.40;;;12.30;99.90;;;;;;5070088;28;20439;-67
2022/07/09 02:13:27;;;;;;;7.23;6.53;;;12.20;99.90;;;;;;5068277;28;20482;-67
2022/07/09 02:15:54;;;;;;;7.33;6.60;;;12.20;99.90;;;;;;5068262;28;20442;-66
2022/07/09 02:18:21;;;;;;;7.97;6.37;;;12.10;99.90;;;;;;5067528;28;20955;-68
2022/07/09 02:20:48;;;;;;;7.67;6.60;;;12.00;99.90;;;;;;5068753;28;20462;-68
2022/07/09 02:23:15;;;;;;;7.67;6.53;;;12.00;99.90;;;;;;5070477;28;20554;-66
2022/07/09 02:25:42;;;;;;;9.40;6.83;;;12.00;99.90;;;;;;5068532;28;20530;-67
2022/07/09 02:28:09;;;;;;;6.87;6.17;;;12.00;99.90;;;;;;5067954;28;20439;-66
2022/07/09 02:30:37;;;;;;;8.30;5.67;;;12.00;99.90;;;;;;5067831;28;20443;-68
2022/07/09 02:33:04;;;;;;;10.37;6.90;;;12.00;99.90;;;;;;5068090;28;20490;-67
2022/07/09 02:35:31;;;;;;;7.20;6.23;;;12.00;99.90;;;;;;5067922;28;20450;-67
2022/07/09 02:37:58;;;;;;;7.80;7.00;;;11.90;99.90;;;;;;5069702;28;20459;-68
2022/07/09 02:40:25;;;;;;;9.63;6.40;;;11.90;99.90;;;;;;5067455;28;20474;-69
2022/07/09 02:42:52;;;;;;;10.17;7.70;;;11.80;99.90;;;;;;5068117;28;20835;-67
2022/07/09 02:45:19;;;;;;;8.40;6.87;;;11.80;99.90;;;;;;5067534;28;20477;-67
2022/07/09 02:47:47;;;;;;;7.63;6.43;;;11.80;99.90;;;;;;5068893;28;20454;-67
2022/07/09 02:50:13;;;;;;;9.67;6.70;;;11.70;99.90;;;;;;5069655;28;20828;-66
2022/07/09 02:52:40;;;;;;;7.73;6.67;;;11.70;99.90;;;;;;5067887;28;20555;-68
2022/07/09 02:55:08;;;;;;;7.30;6.30;;;11.70;99.90;;;;;;5067676;28;20455;-67
2022/07/09 02:57:34;;;;;;;8.40;6.77;;;11.80;99.90;;;;;;5068160;28;20474;-68
2022/07/09 03:00:01;;;;;;;9.93;7.53;;;11.80;99.90;;;;;;5053395;28;20978;-66
2022/07/09 03:02:28;;;;;;;8.67;7.00;;;11.80;99.90;;;;;;5050431;28;21005;-66
2022/07/09 03:04:56;;;;;;;9.83;6.90;;;11.80;99.90;;;;;;5050862;28;20960;-66
2022/07/09 03:07:23;;;;;;;6.70;6.10;;;11.70;99.90;;;;;;5051053;28;20542;-67
2022/07/09 03:09:50;;;;;;;8.43;6.40;;;11.60;99.90;;;;;;5050660;28;20448;-66
2022/07/09 03:12:17;;;;;;;10.80;7.37;;;11.60;99.90;;;;;;5050864;28;20480;-68
2022/07/09 03:14:43;;;;;;;8.30;7.07;;;11.60;99.90;;;;;;5050966;28;20468;-67
2022/07/09 03:17:10;;;;;;;9.43;6.17;;;11.60;99.90;;;;;;5051264;28;20444;-68
2022/07/09 03:19:37;;;;;;;8.03;6.27;;;11.60;99.90;;;;;;5051423;28;20454;-70
2022/07/09 03:22:06;;;;;;;9.37;6.33;;;11.60;99.90;;;;;;5051261;28;20451;-67
2022/07/09 03:24:32;;;;;;;8.70;6.40;;;11.50;99.90;;;;;;5051088;28;20982;-67
2022/07/09 03:26:59;;;;;;;7.10;6.40;;;11.50;99.90;;;;;;5050584;28;20962;-69
2022/07/09 03:29:26;;;;;;;7.80;5.90;;;11.50;99.90;;;;;;5050300;28;20451;-66
2022/07/09 03:31:53;;;;;;;9.30;7.50;;;11.50;99.90;;;;;;5050009;28;20464;-68
2022/07/09 03:34:20;;;;;;;11.90;6.20;;;11.40;99.90;;;;;;5050319;28;20522;-66
2022/07/09 03:36:46;;;;;;;10.47;7.07;;;11.50;99.90;;;;;;5050472;28;20460;-67
2022/07/09 03:39:14;;;;;;;7.73;6.77;;;11.50;99.90;;;;;;5050192;28;20454;-66
2022/07/09 03:41:42;;;;;;;8.23;7.43;;;11.40;99.90;;;;;;5050111;28;20455;-67
2022/07/09 03:44:09;;;;;;;10.93;7.37;;;11.30;99.90;;;;;;5050077;28;20833;-65
2022/07/09 03:46:35;;;;;;;8.37;6.43;;;11.30;99.90;;;;;;5050015;28;20458;-66
2022/07/09 03:49:02;;;;;;;13.63;6.60;;;11.30;99.90;;;;;;5050408;28;20452;-67
2022/07/09 03:51:29;;;;;;;9.10;7.27;;;11.40;99.90;;;;;;5049801;28;20542;-64
2022/07/09 03:53:56;;;;;;;9.27;7.03;;;11.40;99.90;;;;;;5050098;28;20488;-68
2022/07/09 03:56:24;;;;;;;7.37;6.67;;;11.40;99.90;;;;;;5050026;28;20840;-64
2022/07/09 03:58:51;;;;;;;11.70;6.70;;;11.40;99.90;;;;;;5050169;28;20448;-66
2022/07/09 04:01:18;;;;;;;8.80;6.27;;;11.40;99.90;;;;;;5049759;28;20440;-68
2022/07/09 04:03:45;;;;;;;9.90;6.67;;;11.60;99.90;;;;;;5050002;28;20468;-66
2022/07/09 04:06:12;;;;;;;9.70;6.77;;;11.60;99.90;;;;;;5049806;28;20463;-66
2022/07/09 04:08:39;;;;;;;6.73;6.00;;;11.70;99.90;;;;;;5049882;28;20483;-66
2022/07/09 04:11:05;;;;;;;9.43;6.83;;;11.70;99.90;;;;;;5049314;28;20452;-67
2022/07/09 04:13:33;;;;;;;9.07;6.10;;;11.80;99.90;;;;;;5049800;28;20491;-69
2022/07/09 04:16:00;;;;;;;8.90;6.63;;;11.80;99.90;;;;;;5049926;28;20444;-68
2022/07/09 04:18:27;;;;;;;7.47;6.60;;;11.80;99.90;;;;;;5049877;28;20452;-67
2022/07/09 04:20:54;;;;;;;9.27;6.73;;;11.80;99.90;;;;;;5049676;28;20823;-65
2022/07/09 04:23:21;;;;;;;10.43;7.60;;;11.80;99.90;;;;;;5049734;28;20470;-68
2022/07/09 04:25:50;;;;;;;7.20;5.80;;;11.80;99.90;;;;;;5049823;28;20454;-67
2022/07/09 04:28:17;;;;;;;10.80;6.97;;;11.90;99.90;;;;;;5049655;28;21049;-68
2022/07/09 04:30:45;;;;;;;6.77;6.07;;;12.00;99.90;;;;;;5049820;28;20448;-64
2022/07/09 04:33:12;;;;;;;11.30;6.70;;;12.00;99.90;;;;;;5049437;28;21069;-66
2022/07/09 04:35:39;;;;;;;6.57;5.97;;;12.10;99.90;;;;;;5049636;28;20452;-66
2022/07/09 04:38:06;;;;;;;10.20;6.80;;;12.20;99.90;;;;;;5049471;28;20455;-68
2022/07/09 04:40:33;;;;;;;10.00;6.30;;;12.30;99.90;;;;;;5049308;28;20802;-66
2022/07/09 04:42:59;;;;;;;7.40;6.23;;;12.40;99.90;;;;;;5049423;28;20460;-68
2022/07/09 04:45:29;;;;;;;8.00;5.50;;;12.50;99.90;;;;;;5050185;28;20448;-66
2022/07/09 04:47:57;;;;;;;8.03;6.27;;;12.70;99.90;;;;;;5050615;28;20967;-67
2022/07/09 04:50:24;;;;;;;10.20;6.10;;;12.80;99.90;;;;;;5049105;28;20444;-67
2022/07/09 04:52:51;;;;;;;7.40;5.87;;;12.80;99.90;;;;;;5049511;28;20487;-66
2022/07/09 04:55:18;;;;;;;7.27;6.50;;;12.90;99.90;;;;;;5068316;28;20455;-68
2022/07/09 04:57:45;;;;;;;8.83;6.37;;;13.00;99.90;;;;;;5064328;28;20439;-63
2022/07/09 05:00:13;;;;;;;6.63;5.93;;;13.20;99.90;;;;;;5072770;28;20445;-67
2022/07/09 05:02:40;;;;;;;10.83;6.20;;;13.20;99.90;;;;;;5073014;28;20443;-65
2022/07/09 05:05:09;;;;;;;8.80;6.70;;;13.30;99.90;;;;;;5070283;28;20451;-66
2022/07/09 05:07:36;;;;;;;6.87;5.90;;;13.40;99.90;;;;;;5069921;28;20453;-69
2022/07/09 05:10:04;;;;;;;14.50;6.63;;;13.50;99.90;;;;;;5069707;28;20451;-66
2022/07/09 05:12:31;;;;;;;8.70;5.83;;;13.60;99.90;;;;;;5070990;28;20467;-68
2022/07/09 05:14:59;;;;;;;6.20;5.20;;;13.70;99.90;;;;;;5071672;28;20518;-68
2022/07/09 05:17:26;;;;;;;6.70;5.13;;;13.80;99.90;;;;;;5069942;28;21129;-66
2022/07/09 05:19:52;;;;;;;6.70;5.40;;;13.90;99.90;;;;;;5065846;28;20535;-67
2022/07/09 05:22:22;;;;;;;7.97;5.57;;;14.00;99.90;;;;;;5069634;28;20978;-67
2022/07/09 05:24:49;;;;;;;6.20;5.37;;;14.10;99.90;;;;;;5066261;28;20448;-66
2022/07/09 05:27:16;;;;;;;6.33;5.30;;;14.20;99.90;;;;;;5072156;28;20442;-67
2022/07/09 05:29:43;;;;;;;6.43;5.17;;;14.30;99.90;;;;;;5069717;28;20512;-67
2022/07/09 05:32:10;;;;;;;6.83;6.07;;;14.40;99.90;;;;;;5069662;28;20443;-67
2022/07/09 05:34:36;;;;;;;8.03;5.40;;;14.40;99.90;;;;;;5069508;28;20510;-67
2022/07/09 05:37:03;;;;;;;5.47;4.90;;;14.50;99.90;;;;;;5069565;28;20459;-67
2022/07/09 05:39:32;;;;;;;6.43;4.90;;;14.60;99.90;;;;;;5070880;28;20462;-66
2022/07/09 05:41:58;;;;;;;8.23;4.93;;;14.70;99.90;;;;;;5071110;28;20451;-67
2022/07/09 05:44:25;;;;;;;9.70;5.03;;;14.80;99.90;;;;;;5069578;28;20466;-66
2022/07/09 05:46:52;;;;;;;4.80;4.20;;;14.90;99.90;;;;;;5066594;28;20455;-67
2022/07/09 05:49:19;;;;;;;7.40;4.87;;;14.90;99.90;;;;;;5069484;28;20459;-68
2022/07/09 05:51:46;;;;;;;6.70;4.33;;;15.00;99.90;;;;;;5070027;28;20439;-69
2022/07/09 05:54:13;;;;;;;5.70;4.87;;;15.10;99.90;;;;;;5071342;28;20920;-68
2022/07/09 05:56:41;;;;;;;6.20;4.27;;;15.20;99.90;;;;;;5070078;28;20447;-67
2022/07/09 05:59:08;;;;;;;6.47;5.47;;;15.40;99.90;;;;;;5069133;28;20501;-67
2022/07/09 06:01:39;;;;;;;6.30;4.70;;;15.50;99.90;;;;;;5070083;28;20838;-67
2022/07/09 06:04:07;;;;;;;6.73;4.30;;;15.60;99.90;;;;;;5070943;28;20499;-66
2022/07/09 06:06:34;;;;;;;7.13;3.57;;;15.70;99.90;;;;;;5069746;28;20453;-68
2022/07/09 06:09:00;;;;;;;10.60;4.73;;;15.80;99.90;;;;;;5069447;28;20978;-67
2022/07/09 06:11:27;;;;;;;5.40;4.23;;;16.00;99.90;;;;;;5068892;28;20539;-69
2022/07/09 06:13:55;;;;;;;7.57;3.80;;;16.10;99.90;;;;;;5068800;28;20498;-66
2022/07/09 06:16:22;;;;;;;4.50;3.80;;;16.10;99.90;;;;;;5066221;28;20461;-68
2022/07/09 06:18:49;;;;;;;5.47;4.23;;;16.20;99.90;;;;;;5065195;28;20440;-70
2022/07/09 06:21:16;;;;;;;7.30;3.93;;;16.40;99.90;;;;;;5070864;28;20436;-68
2022/07/09 06:23:43;;;;;;;7.40;4.17;;;16.50;99.90;;;;;;5068746;28;20459;-67
2022/07/09 06:26:09;;;;;;;5.37;3.93;;;16.70;99.90;;;;;;5068603;28;20462;-68
2022/07/09 06:28:37;;;;;;;5.53;4.50;;;16.90;99.90;;;;;;5068659;28;21334;-68
2022/07/09 06:31:06;;;;;;;7.80;4.33;;;17.10;99.90;;;;;;5068574;28;20447;-67
2022/07/09 06:33:33;;;;;;;5.97;3.90;;;17.40;99.90;;;;;;5069435;28;20573;-66
2022/07/09 06:36:00;;;;;;;4.50;4.07;;;17.60;99.90;;;;;;5070547;28;20942;-67
2022/07/09 06:38:29;;;;;;;4.97;3.80;;;17.90;99.90;;;;;;5068533;28;20463;-68
2022/07/09 06:40:55;;;;;;;4.23;3.80;;;18.20;99.90;;;;;;5064860;28;20447;-67
2022/07/09 06:43:22;;;;;;;6.30;3.87;;;18.30;99.90;;;;;;5068465;28;20463;-69
2022/07/09 06:45:49;;;;;;;6.37;4.10;;;18.40;99.90;;;;;;5064690;28;20458;-67
2022/07/09 06:48:17;;;;;;;7.53;4.37;;;18.40;99.90;;;;;;5070653;28;20443;-68
2022/07/09 06:50:44;;;;;;;7.10;4.37;;;18.40;99.90;;;;;;5068291;28;20856;-67
2022/07/09 06:53:11;;;;;;;7.57;3.97;;;18.30;99.90;;;;;;5068331;28;20486;-67
2022/07/09 06:55:38;;;;;;;9.33;4.00;;;18.30;99.90;;;;;;5068128;28;20458;-67
2022/07/09 06:58:04;;;;;;;5.67;4.07;;;18.30;99.90;;;;;;5068092;28;20447;-69
2022/07/09 07:00:31;;;;;;;5.63;3.90;;;18.30;99.90;;;;;;5069123;28;20458;-67
2022/07/09 07:02:59;;;;;;;5.97;4.00;;;18.20;99.90;;;;;;5069730;28;20462;-65
2022/07/09 07:05:28;;;;;;;8.13;4.20;;;18.30;99.90;;;;;;5068419;28;20459;-67
2022/07/09 07:07:55;;;;;;;5.57;4.07;;;18.30;99.90;;;;;;5064992;28;20454;-69
2022/07/09 07:10:22;;;;;;;6.40;3.33;;;18.30;99.90;;;;;;5068060;28;20449;-66
2022/07/09 07:12:49;;;;;;;6.90;4.83;;;18.40;99.90;;;;;;5068696;28;20468;-68
2022/07/09 07:15:15;;;;;;;6.17;4.90;;;18.50;99.90;;;;;;5070367;28;20473;-67
2022/07/09 07:17:42;;;;;;;6.63;4.00;;;18.70;99.90;;;;;;5067865;28;20447;-68
2022/07/09 07:20:10;;;;;;;5.37;4.30;;;19.00;99.90;;;;;;5067405;28;20451;-65
2022/07/09 07:22:38;;;;;;;7.63;4.77;;;19.40;99.90;;;;;;5067755;28;20455;-66
2022/07/09 07:25:06;;;;;;;6.40;4.20;;;19.70;99.90;;;;;;5067686;28;20447;-66
2022/07/09 07:27:32;;;;;;;6.27;4.20;;;19.70;99.90;;;;;;5068801;28;20447;-68
2022/07/09 07:29:59;;;;;;;5.63;3.63;;;19.80;99.90;;;;;;5068149;28;20439;-70
2022/07/09 07:32:26;;;;;;;7.57;4.70;;;20.00;99.90;;;;;;5065102;28;20475;-68
2022/07/09 07:34:53;;;;;;;5.37;4.33;;;20.00;99.90;;;;;;5070165;28;20494;-68
2022/07/09 07:37:20;;;;;;;4.83;3.63;;;20.10;99.90;;;;;;5070130;28;21027;-70
2022/07/09 07:39:48;;;;;;;8.00;4.10;;;20.10;99.90;;;;;;5069761;28;20525;-69
2022/07/09 07:42:15;;;;;;;7.93;4.30;;;20.00;99.90;;;;;;5070348;28;20439;-68
2022/07/09 07:44:42;;;;;;;9.43;4.60;;;19.80;99.90;;;;;;5069950;28;20486;-70
2022/07/09 07:47:09;;;;;;;7.83;4.60;;;19.80;99.90;;;;;;5070087;28;20451;-67
2022/07/09 07:49:36;;;;;;;6.77;3.80;;;19.90;99.90;;;;;;5070107;28;20481;-68
2022/07/09 07:52:04;;;;;;;7.67;4.17;;;19.80;99.90;;;;;;5069622;28;20455;-67
2022/07/09 07:54:30;;;;;;;5.83;4.50;;;20.00;99.90;;;;;;5069850;28;20486;-68
2022/07/09 07:56:58;;;;;;;4.30;3.77;;;20.10;99.90;;;;;;5069938;28;20458;-69
2022/07/09 07:59:25;;;;;;;5.67;3.93;;;20.20;99.90;;;;;;5069966;28;20459;-68
2022/07/09 08:01:52;;;;;;;6.55;3.55;;;20.30;99.90;;;;;;5069113;28;20441;-67
2022/07/09 08:04:19;;;;;;;6.43;3.60;;;20.30;99.90;;;;;;5069831;28;20303;-69
2022/07/09 08:06:46;;;;;;;8.27;3.53;;;20.50;99.90;;;;;;5069639;28;20449;-68
2022/07/09 08:09:12;;;;;;;4.30;3.53;;;20.70;99.90;;;;;;5070141;28;20450;-68
2022/07/09 08:11:39;;;;;;;6.83;3.13;;;20.80;99.90;;;;;;5069332;28;20447;-68
2022/07/09 08:14:08;;;;;;;4.30;3.37;;;21.00;99.90;;;;;;5069616;28;20479;-66
2022/07/09 08:16:35;;;;;;;4.10;3.20;;;21.20;99.90;;;;;;5069693;28;20455;-67
2022/07/09 08:19:02;;;;;;;4.80;3.17;;;21.20;99.90;;;;;;5069897;28;21286;-67
2022/07/09 08:21:29;;;;;;;8.33;3.30;;;21.20;99.90;;;;;;5067566;28;20450;-66
2022/07/09 08:23:56;;;;;;;6.30;3.40;;;21.20;99.90;;;;;;5066376;28;20459;-65
2022/07/09 08:26:25;;;;;;;6.73;3.90;;;21.30;99.90;;;;;;5063373;28;20504;-65
2022/07/09 08:28:52;;;;;;;3.23;2.93;;;21.50;99.90;;;;;;5059411;28;20467;-65
2022/07/09 08:31:21;;;;;;;5.90;3.80;;;21.60;99.90;;;;;;5066071;28;20442;-66
2022/07/09 08:33:48;;;;;;;6.17;3.80;;;21.80;99.90;;;;;;5069165;28;20486;-65
2022/07/09 08:36:16;;;;;;;4.90;3.60;;;21.90;99.90;;;;;;5070860;28;20447;-64
2022/07/09 08:38:42;;;;;;;4.33;3.20;;;22.10;99.90;;;;;;5073832;28;20449;-68
2022/07/09 08:41:09;;;;;;;5.37;3.07;;;22.30;99.90;;;;;;5073271;28;20443;-65
2022/07/09 08:43:38;;;;;;;7.07;3.97;;;22.30;99.70;;;;;;5073304;28;21638;-65
2022/07/09 08:46:06;;;;;;;4.33;2.93;;;22.30;99.90;;;;;;5066962;28;20443;-65
2022/07/09 08:48:35;;;;;;;4.27;2.93;;;22.50;99.90;;;;;;5073619;28;20453;-65
2022/07/09 08:51:03;;;;;;;5.90;3.20;;;22.50;99.90;;;;;;5072446;28;20453;-67
2022/07/09 08:53:30;;;;;;;4.80;2.47;;;22.60;99.90;;;;;;5073352;28;20462;-64
2022/07/09 08:55:57;;;;;;;3.33;1.77;;;22.60;99.90;;;;;;5073264;28;20451;-66
2022/07/09 08:58:25;;;;;;;5.30;2.00;;;22.70;98.80;;;;;;5066735;28;20941;-68
2022/07/09 09:00:52;;;;;;;4.47;2.40;;;22.70;99.90;;;;;;5060920;28;21188;-66
2022/07/09 09:03:19;;;;;;;4.20;2.47;;;22.60;99.30;;;;;;5056421;28;20483;-66
2022/07/09 09:06:02;;;;;;;3.60;2.20;;;22.50;98.80;;;;;;5061324;28;20833;-67
2022/07/09 09:08:33;;;;;;;2.70;2.37;;;22.50;99.10;;;;;;5059214;28;20448;-67
2022/07/09 09:11:00;;;;;;;5.27;2.50;;;22.60;99.90;;;;;;5063684;28;20443;-63
2022/07/09 09:13:27;;;;;;;4.07;2.00;;;22.70;99.50;;;;;;5066550;28;20471;-64
2022/07/09 09:16:04;;;;;;;12.77;3.17;;;22.60;98.50;;;;;;5057999;28;20471;-64
2022/07/09 09:18:30;;;;;;;4.10;1.97;;;22.70;99.60;;;;;;5061236;28;20450;-67
2022/07/09 09:21:04;;;;;;;3.53;1.87;;;22.90;99.70;;;;;;5060839;28;20460;-64
2022/07/09 09:23:39;;;;;;;4.87;1.80;;;23.00;98.70;;;;;;5063329;28;20525;-65
2022/07/09 09:26:11;;;;;;;4.60;2.80;;;23.20;98.00;;;;;;5066162;28;20441;-66
2022/07/09 09:28:47;;;;;;;3.43;1.87;;;23.30;97.70;;;;;;5072246;28;20443;-66
2022/07/09 09:31:21;;;;;;;2.67;1.50;;;23.30;97.30;;;;;;5065385;28;20496;-65
2022/07/09 09:33:48;;;;;;;3.80;1.57;;;23.40;97.30;;;;;;5060767;28;20491;-64
2022/07/09 09:36:30;;;;;;;3.93;2.63;;;23.40;96.10;;;;;;5060063;28;20451;-66
2022/07/09 09:39:08;;;;;;;5.23;2.10;;;23.40;95.90;;;;;;5056655;28;20486;-62
2022/07/09 09:41:35;;;;;;;4.20;2.60;;;23.60;96.40;;;;;;5060397;28;20956;-66
2022/07/09 09:44:08;;;;;;;3.70;2.10;;;23.60;94.80;;;;;;5062147;28;20463;-65
2022/07/09 09:46:37;;;;;;;4.23;2.30;;;23.60;94.90;;;;;;5064683;28;20475;-66
2022/07/09 09:49:07;;;;;;;3.77;2.50;;;23.70;95.70;;;;;;5065357;28;20444;-68
2022/07/09 09:51:37;;;;;;;3.40;1.93;;;24.00;95.60;;;;;;5065124;28;20440;-65
2022/07/09 09:54:05;;;;;;;3.50;2.13;;;24.50;95.60;;;;;;5071034;28;20482;-65
2022/07/09 09:56:32;;;;;;;7.37;2.80;;;24.90;96.60;;;;;;5072552;28;20447;-65
2022/07/09 09:59:00;;;;;;;6.40;2.90;;;25.30;93.90;;;;;;5065863;28;20448;-65
2022/07/09 10:01:29;;;;;;;3.50;2.23;;;25.00;93.10;;;;;;5072133;28;20443;-65
2022/07/09 10:03:56;;;;;;;4.63;2.27;;;25.30;92.70;;;;;;5060578;28;21016;-65
2022/07/09 10:06:24;;;;;;;5.33;2.47;;;25.80;91.50;;;;;;5059370;28;20841;-65
2022/07/09 10:08:53;;;;;;;7.60;2.27;;;26.40;90.60;;;;;;5061355;28;20454;-63
2022/07/09 10:11:19;;;;;;;5.40;2.20;;;26.70;91.40;;;;;;5061505;28;20451;-64
2022/07/09 10:13:54;;;;;;;3.10;1.93;;;27.70;90.10;;;;;;5061683;28;20478;-67
2022/07/09 10:16:33;;;;;;;3.43;1.70;;;28.60;85.20;;;;;;5059877;28;20453;-64
2022/07/09 10:19:00;;;;;;;6.33;2.13;;;29.50;87.80;;;;;;5062535;28;20999;-63
2022/07/09 10:21:38;;;;;;;4.27;2.80;;;29.40;84.80;;;;;;5061453;28;20439;-64
2022/07/09 10:24:08;;;;;;;3.57;2.27;;;28.40;80.00;;;;;;5058873;28;20471;-64
2022/07/09 10:26:46;;;;;;;4.53;1.70;;;27.50;82.00;;;;;;5060537;28;20444;-67
2022/07/09 10:29:24;;;;;;;3.50;2.10;;;27.00;81.00;;;;;;5054169;28;20455;-64
2022/07/09 10:31:50;;;;;;;3.97;2.00;;;26.40;83.50;;;;;;5057782;28;20538;-66
2022/07/09 10:34:54;;;;;;;3.10;1.87;;;25.70;83.40;;;;;;5059806;28;20486;-66
2022/07/09 10:37:34;;;;;;;2.80;1.87;;;26.10;82.50;;;;;;5051823;28;20462;-65
2022/07/09 10:40:14;;;;;;;6.33;1.80;;;27.30;79.20;;;;;;5063251;28;20454;-65
2022/07/09 10:42:41;;;;;;;2.87;1.57;;;27.80;77.40;;;;;;5060916;28;20450;-66
2022/07/09 10:45:24;;;;;;;3.23;1.80;;;28.00;76.00;;;;;;5065367;28;20530;-66
2022/07/09 10:47:53;;;;;;;2.80;1.70;;;28.20;75.70;;;;;;5055418;28;20564;-66
2022/07/09 10:50:21;;;;;;;2.23;1.30;;;27.80;75.00;;;;;;5058956;28;20470;-64
2022/07/09 10:52:49;;;;;;;3.17;1.60;;;27.50;74.20;;;;;;5057426;28;20475;-65
2022/07/09 10:55:18;;;;;;;2.80;1.37;;;28.00;75.70;;;;;;5057118;28;20482;-65
2022/07/09 10:57:45;;;;;;;2.30;1.50;;;28.70;73.50;;;;;;5057678;28;20451;-66
2022/07/09 11:00:16;;;;;;;3.53;1.50;;;28.10;74.90;;;;;;5058998;28;20485;-65
2022/07/09 11:02:56;;;;;;;3.60;1.83;;;27.70;76.70;;;;;;5064568;28;20473;-65
2022/07/09 11:05:23;;;;;;;4.10;2.10;;;26.80;79.80;;;;;;5061384;28;20508;-65
2022/07/09 11:07:57;;;;;;;3.70;1.87;;;26.00;81.00;;;;;;5066623;28;20486;-66
2022/07/09 11:10:27;;;;;;;3.20;1.67;;;25.30;82.70;;;;;;5061771;28;20550;-67
2022/07/09 11:12:55;;;;;;;3.10;1.63;;;24.90;84.30;;;;;;5066347;28;20487;-65
2022/07/09 11:15:23;;;;;;;5.20;2.00;;;24.60;85.10;;;;;;5061986;28;20482;-66
2022/07/09 11:17:57;;;;;;;3.23;1.73;;;24.40;85.20;;;;;;5063217;28;20471;-67
2022/07/09 11:20:24;;;;;;;3.80;1.60;;;24.50;89.20;;;;;;5065932;28;20465;-64
2022/07/09 11:22:51;;;;;;;3.80;1.80;;;24.80;91.10;;;;;;5062628;28;20468;-63
2022/07/09 11:25:19;;;;;;;3.10;1.57;;;25.90;87.00;;;;;;5064710;28;20447;-65
2022/07/09 11:27:47;;;;;;;4.60;1.73;;;27.90;80.40;;;;;;5064732;28;20461;-64
2022/07/09 11:30:15;;;;;;;2.70;1.80;;;29.60;75.30;;;;;;5066398;28;20439;-63
2022/07/09 11:32:43;;;;;;;2.47;1.40;;;29.50;71.70;;;;;;5053439;28;20483;-64
2022/07/09 11:35:10;;;;;;;2.67;1.50;;;28.80;71.60;;;;;;5066398;28;20490;-67
2022/07/09 11:37:36;;;;;;;5.70;2.07;;;28.30;71.20;;;;;;5065085;28;22206;-66
2022/07/09 11:40:04;;;;;;;4.00;1.70;;;27.60;77.10;;;;;;5063857;28;20452;-64
2022/07/09 11:42:31;;;;;;;2.97;2.07;;;26.80;81.30;;;;;;5065787;28;20459;-64
2022/07/09 11:45:02;;;;;;;5.00;2.10;;;26.40;83.30;;;;;;5064691;28;20512;-65
2022/07/09 11:47:35;;;;;;;3.27;1.77;;;26.20;85.50;;;;;;5065362;28;20463;-68
2022/07/09 11:50:10;;;;;;;3.47;2.00;;;26.30;85.40;;;;;;5062055;28;20436;-65
2022/07/09 11:52:38;;;;;;;3.70;1.90;;;26.20;83.90;;;;;;5051576;28;20470;-68
2022/07/09 11:55:07;;;;;;;2.90;2.10;;;26.10;85.20;;;;;;5060235;28;20486;-66
2022/07/09 11:57:36;;;;;;;3.73;2.07;;;26.10;85.70;;;;;;5063823;28;20474;-65
2022/07/09 12:00:06;;;;;;;3.67;2.40;;;26.20;86.60;;;;;;5064429;28;20455;-66
2022/07/09 12:02:35;;;;;;;2.73;1.90;;;26.40;84.50;;;;;;5064993;28;20458;-68
2022/07/09 12:05:04;;;;;;;4.60;2.43;;;26.80;85.00;;;;;;5061285;28;20978;-65
2022/07/09 12:07:32;;;;;;;3.93;3.40;;;27.30;83.20;;;;;;5063828;28;20949;-66
2022/07/09 12:09:59;;;;;;;3.27;1.70;;;27.90;81.60;;;;;;5065730;28;20910;-65
2022/07/09 12:12:27;;;;;;;2.93;1.57;;;28.10;77.80;;;;;;5067196;28;20458;-66
2022/07/09 12:14:55;;;;;;;3.30;1.77;;;27.80;76.40;;;;;;5065708;28;20516;-65
2022/07/09 12:17:25;;;;;;;6.43;1.60;;;28.00;77.60;;;;;;5069745;28;20462;-64
2022/07/09 12:19:52;;;;;;;2.77;1.77;;;28.70;76.10;;;;;;5069458;28;20439;-66
2022/07/09 12:22:20;;;;;;;4.07;2.00;;;28.60;75.80;;;;;;5069986;28;20443;-66
2022/07/09 12:24:46;;;;;;;3.80;1.80;;;28.20;76.60;;;;;;5069903;28;20459;-65
2022/07/09 12:27:13;;;;;;;3.50;1.90;;;27.40;77.10;;;;;;5068717;28;20463;-67
2022/07/09 12:29:40;;;;;;;3.10;1.87;;;26.90;76.40;;;;;;5066147;28;20471;-66
2022/07/09 12:32:08;;;;;;;3.10;1.60;;;26.60;76.90;;;;;;5059953;28;21250;-68
2022/07/09 12:34:36;;;;;;;4.50;1.90;;;27.30;77.40;;;;;;5058799;28;20483;-65
2022/07/09 12:37:03;;;;;;;2.53;1.60;;;27.80;75.20;;;;;;5061588;28;20477;-66
2022/07/09 12:39:30;;;;;;;10.83;1.80;;;28.00;75.90;;;;;;5063667;28;20463;-68
2022/07/09 12:41:58;;;;;;;3.03;1.60;;;28.40;75.20;;;;;;5062846;28;20829;-65
2022/07/09 12:44:25;;;;;;;3.27;1.70;;;28.50;72.00;;;;;;5063840;28;20570;-67
2022/07/09 12:46:52;;;;;;;5.30;4.27;;;28.20;72.60;;;;;;5063938;28;20489;-65
2022/07/09 12:49:19;;;;;;;7.73;2.50;;;28.10;74.50;;;;;;5069528;28;20443;-65